sensor_id;sensor_type;location;lat;lon;timestamp;temperature;humidity
17341;DHT22;8788;49.930;8.660;2023-05-23T00:00:18;18.60;99.90
17341;DHT22;8788;49.930;8.660;2023-05-23T00:02:45;18.50;99.90
17341;DHT22;8788;49.930;8.660;2023-05-23T00:05:14;18.50;99.90
17341;DHT22;8788;49.930;8.660;2023-05-23T00:07:42;18.50;99.90
17341;DHT22;8788;49.930;8.660;2023-05-23T00:10:10;18.50;99.90
17341;DHT22;8788;49.930;8.660;2023-05-23T00:12:37;18.50;99.90
17341;DHT22;8788;49.930;8.660;2023-05-23T00:15:08;18.50;99.90
17341;DHT22;8788;49.930;8.660;2023-05-23T00:17:35;18.60;99.90
17341;DHT22;8788;49.930;8.660;2023-05-23T00:20:03;18.60;99.90
17341;DHT22;8788;49.930;8.660;2023-05-23T00:22:31;18.60;99.90
17341;DHT22;8788;49.930;8.660;2023-05-23T00:24:58;18.70;99.90
17341;DHT22;8788;49.930;8.660;2023-05-23T00:27:26;18.70;99.90
17341;DHT22;8788;49.930;8.660;2023-05-23T00:29:53;18.80;99.90
17341;DHT22;8788;49.930;8.660;2023-05-23T00:32:20;18.70;99.90
17341;DHT22;8788;49.930;8.660;2023-05-23T00:34:48;18.70;99.90
17341;DHT22;8788;49.930;8.660;2023-05-23T00:37:15;18.60;99.90
17341;DHT22;8788;49.930;8.660;2023-05-23T00:39:44;18.60;99.90
17341;DHT22;8788;49.930;8.660;2023-05-23T00:42:11;18.60;99.90
17341;DHT22;8788;49.930;8.660;2023-05-23T00:44:38;18.50;99.90
17341;DHT22;8788;49.930;8.660;2023-05-23T00:47:06;18.50;99.90
17341;DHT22;8788;49.930;8.660;2023-05-23T00:49:34;18.40;99.90
17341;DHT22;8788;49.930;8.660;2023-05-23T00:52:01;18.40;99.90
17341;DHT22;8788;49.930;8.660;2023-05-23T00:54:29;18.30;99.90
17341;DHT22;8788;49.930;8.660;2023-05-23T00:56:58;18.30;99.90
17341;DHT22;8788;49.930;8.660;2023-05-23T00:59:26;18.40;99.90
17341;DHT22;8788;49.930;8.660;2023-05-23T01:01:55;18.30;99.90
17341;DHT22;8788;49.930;8.660;2023-05-23T01:04:22;18.30;99.90
17341;DHT22;8788;49.930;8.660;2023-05-23T01:06:52;18.30;99.90
17341;DHT22;8788;49.930;8.660;2023-05-23T01:09:20;18.30;99.90
17341;DHT22;8788;49.930;8.660;2023-05-23T01:11:54;18.30;99.90
17341;DHT22;8788;49.930;8.660;2023-05-23T01:14:34;18.30;99.90
17341;DHT22;8788;49.930;8.660;2023-05-23T01:17:08;18.30;99.90
17341;DHT22;8788;49.930;8.660;2023-05-23T01:19:57;18.30;99.90
17341;DHT22;8788;49.930;8.660;2023-05-23T01:22:42;18.30;99.90
17341;DHT22;8788;49.930;8.660;2023-05-23T01:25:25;18.30;99.90
17341;DHT22;8788;49.930;8.660;2023-05-23T01:27:58;18.30;99.90
17341;DHT22;8788;49.930;8.660;2023-05-23T01:30:30;18.20;99.90
17341;DHT22;8788;49.930;8.660;2023-05-23T01:32:58;18.20;99.90
17341;DHT22;8788;49.930;8.660;2023-05-23T01:35:26;18.20;99.90
17341;DHT22;8788;49.930;8.660;2023-05-23T01:37:54;18.20;99.90
17341;DHT22;8788;49.930;8.660;2023-05-23T01:40:23;18.20;99.90
17341;DHT22;8788;49.930;8.660;2023-05-23T01:42:51;18.20;99.90
17341;DHT22;8788;49.930;8.660;2023-05-23T01:45:24;18.10;99.90
17341;DHT22;8788;49.930;8.660;2023-05-23T01:47:53;18.00;99.90
17341;DHT22;8788;49.930;8.660;2023-05-23T01:50:20;17.90;99.90
17341;DHT22;8788;49.930;8.660;2023-05-23T01:52:48;17.90;99.90
17341;DHT22;8788;49.930;8.660;2023-05-23T01:55:17;17.90;99.90
17341;DHT22;8788;49.930;8.660;2023-05-23T01:57:49;17.80;99.90
17341;DHT22;8788;49.930;8.660;2023-05-23T02:00:17;17.80;99.90
17341;DHT22;8788;49.930;8.660;2023-05-23T02:02:47;17.70;99.90
17341;DHT22;8788;49.930;8.660;2023-05-23T02:05:16;17.70;99.90
17341;DHT22;8788;49.930;8.660;2023-05-23T02:07:44;17.70;99.90
17341;DHT22;8788;49.930;8.660;2023-05-23T02:10:11;17.70;99.90
17341;DHT22;8788;49.930;8.660;2023-05-23T02:12:38;17.60;99.90
17341;DHT22;8788;49.930;8.660;2023-05-23T02:15:06;17.70;99.90
17341;DHT22;8788;49.930;8.660;2023-05-23T02:17:35;17.70;99.90
17341;DHT22;8788;49.930;8.660;2023-05-23T02:20:07;17.70;99.90
17341;DHT22;8788;49.930;8.660;2023-05-23T02:22:34;17.70;99.90
17341;DHT22;8788;49.930;8.660;2023-05-23T02:25:02;17.70;99.90
17341;DHT22;8788;49.930;8.660;2023-05-23T02:27:29;17.70;99.90
17341;DHT22;8788;49.930;8.660;2023-05-23T02:29:56;17.70;99.90
17341;DHT22;8788;49.930;8.660;2023-05-23T02:32:23;17.70;99.90
17341;DHT22;8788;49.930;8.660;2023-05-23T02:34:50;17.60;99.90
17341;DHT22;8788;49.930;8.660;2023-05-23T02:37:19;17.60;99.90
17341;DHT22;8788;49.930;8.660;2023-05-23T02:39:47;17.50;99.90
17341;DHT22;8788;49.930;8.660;2023-05-23T02:42:14;17.40;99.90
17341;DHT22;8788;49.930;8.660;2023-05-23T02:44:41;17.40;99.90
17341;DHT22;8788;49.930;8.660;2023-05-23T02:47:08;17.40;99.90
17341;DHT22;8788;49.930;8.660;2023-05-23T02:49:35;17.40;99.90
17341;DHT22;8788;49.930;8.660;2023-05-23T02:52:02;17.50;99.90
17341;DHT22;8788;49.930;8.660;2023-05-23T02:54:31;17.50;99.90
17341;DHT22;8788;49.930;8.660;2023-05-23T02:56:58;17.50;99.90
17341;DHT22;8788;49.930;8.660;2023-05-23T02:59:26;17.50;99.90
17341;DHT22;8788;49.930;8.660;2023-05-23T03:01:53;17.50;99.90
17341;DHT22;8788;49.930;8.660;2023-05-23T03:04:20;17.50;99.90
17341;DHT22;8788;49.930;8.660;2023-05-23T03:06:47;17.50;99.90
17341;DHT22;8788;49.930;8.660;2023-05-23T03:09:15;17.60;99.90
17341;DHT22;8788;49.930;8.660;2023-05-23T03:11:44;17.60;99.90
17341;DHT22;8788;49.930;8.660;2023-05-23T03:14:11;17.70;99.90
17341;DHT22;8788;49.930;8.660;2023-05-23T03:16:38;17.60;99.90
17341;DHT22;8788;49.930;8.660;2023-05-23T03:19:05;17.60;99.90
17341;DHT22;8788;49.930;8.660;2023-05-23T03:21:32;17.60;99.90
17341;DHT22;8788;49.930;8.660;2023-05-23T03:24:00;17.60;99.90
17341;DHT22;8788;49.930;8.660;2023-05-23T03:26:29;17.60;99.90
17341;DHT22;8788;49.930;8.660;2023-05-23T03:28:58;17.50;99.90
17341;DHT22;8788;49.930;8.660;2023-05-23T03:31:25;17.60;99.90
17341;DHT22;8788;49.930;8.660;2023-05-23T03:33:52;17.70;99.90
17341;DHT22;8788;49.930;8.660;2023-05-23T03:36:19;17.60;99.90
17341;DHT22;8788;49.930;8.660;2023-05-23T03:38:51;17.70;99.90
17341;DHT22;8788;49.930;8.660;2023-05-23T03:41:18;17.70;99.90
17341;DHT22;8788;49.930;8.660;2023-05-23T03:43:46;17.60;99.90
17341;DHT22;8788;49.930;8.660;2023-05-23T03:46:14;17.60;99.90
17341;DHT22;8788;49.930;8.660;2023-05-23T03:48:41;17.60;99.90
17341;DHT22;8788;49.930;8.660;2023-05-23T03:51:09;17.60;99.90
17341;DHT22;8788;49.930;8.660;2023-05-23T03:53:38;17.60;99.90
17341;DHT22;8788;49.930;8.660;2023-05-23T03:56:05;17.60;99.90
17341;DHT22;8788;49.930;8.660;2023-05-23T03:58:32;17.60;99.90
17341;DHT22;8788;49.930;8.660;2023-05-23T04:01:05;17.50;99.90
17341;DHT22;8788;49.930;8.660;2023-05-23T04:03:35;17.40;99.90
17341;DHT22;8788;49.930;8.660;2023-05-23T04:06:03;17.40;99.90
17341;DHT22;8788;49.930;8.660;2023-05-23T04:08:30;17.40;99.90
17341;DHT22;8788;49.930;8.660;2023-05-23T04:10:59;17.30;99.90
17341;DHT22;8788;49.930;8.660;2023-05-23T04:13:29;17.30;99.90
17341;DHT22;8788;49.930;8.660;2023-05-23T04:15:58;17.20;99.90
17341;DHT22;8788;49.930;8.660;2023-05-23T04:18:26;17.10;99.90
17341;DHT22;8788;49.930;8.660;2023-05-23T04:20:56;17.00;99.90
17341;DHT22;8788;49.930;8.660;2023-05-23T04:23:23;17.00;99.90
17341;DHT22;8788;49.930;8.660;2023-05-23T04:25:53;16.90;99.90
17341;DHT22;8788;49.930;8.660;2023-05-23T04:28:28;16.90;99.90
17341;DHT22;8788;49.930;8.660;2023-05-23T04:30:56;16.90;99.90
17341;DHT22;8788;49.930;8.660;2023-05-23T04:33:28;16.90;99.90
17341;DHT22;8788;49.930;8.660;2023-05-23T04:35:56;16.90;99.90
17341;DHT22;8788;49.930;8.660;2023-05-23T04:38:23;17.00;99.90
17341;DHT22;8788;49.930;8.660;2023-05-23T04:40:52;17.00;99.90
17341;DHT22;8788;49.930;8.660;2023-05-23T04:43:38;16.90;99.90
17341;DHT22;8788;49.930;8.660;2023-05-23T04:46:30;16.90;99.90
17341;DHT22;8788;49.930;8.660;2023-05-23T04:49:11;17.00;99.90
17341;DHT22;8788;49.930;8.660;2023-05-23T04:51:40;16.90;99.90
17341;DHT22;8788;49.930;8.660;2023-05-23T04:54:28;16.90;99.90
17341;DHT22;8788;49.930;8.660;2023-05-23T04:56:58;16.90;99.90
17341;DHT22;8788;49.930;8.660;2023-05-23T04:59:26;16.90;99.90
17341;DHT22;8788;49.930;8.660;2023-05-23T05:01:53;16.90;99.90
17341;DHT22;8788;49.930;8.660;2023-05-23T05:04:20;16.90;99.90
17341;DHT22;8788;49.930;8.660;2023-05-23T05:06:49;16.90;99.90
17341;DHT22;8788;49.930;8.660;2023-05-23T05:09:17;16.90;99.90
17341;DHT22;8788;49.930;8.660;2023-05-23T05:11:45;16.90;99.90
17341;DHT22;8788;49.930;8.660;2023-05-23T05:14:13;16.90;99.90
17341;DHT22;8788;49.930;8.660;2023-05-23T05:16:40;17.00;99.90
17341;DHT22;8788;49.930;8.660;2023-05-23T05:19:08;16.90;99.90
17341;DHT22;8788;49.930;8.660;2023-05-23T05:21:35;16.90;99.90
17341;DHT22;8788;49.930;8.660;2023-05-23T05:24:04;17.00;99.90
17341;DHT22;8788;49.930;8.660;2023-05-23T05:26:34;17.10;99.90
17341;DHT22;8788;49.930;8.660;2023-05-23T05:29:01;17.10;99.90
17341;DHT22;8788;49.930;8.660;2023-05-23T05:31:29;17.10;99.90
17341;DHT22;8788;49.930;8.660;2023-05-23T05:33:57;17.10;99.90
17341;DHT22;8788;49.930;8.660;2023-05-23T05:36:24;17.20;99.90
17341;DHT22;8788;49.930;8.660;2023-05-23T05:38:51;17.20;99.90
17341;DHT22;8788;49.930;8.660;2023-05-23T05:41:21;17.20;99.90
17341;DHT22;8788;49.930;8.660;2023-05-23T05:43:50;17.30;99.90
17341;DHT22;8788;49.930;8.660;2023-05-23T05:46:18;17.40;99.90
17341;DHT22;8788;49.930;8.660;2023-05-23T05:48:45;17.40;99.90
17341;DHT22;8788;49.930;8.660;2023-05-23T05:51:15;17.40;99.90
17341;DHT22;8788;49.930;8.660;2023-05-23T05:53:43;17.40;99.90
17341;DHT22;8788;49.930;8.660;2023-05-23T05:56:11;17.40;99.90
17341;DHT22;8788;49.930;8.660;2023-05-23T05:58:39;17.40;99.90
17341;DHT22;8788;49.930;8.660;2023-05-23T06:01:08;17.50;99.90
17341;DHT22;8788;49.930;8.660;2023-05-23T06:03:35;17.50;99.90
17341;DHT22;8788;49.930;8.660;2023-05-23T06:06:03;17.50;99.90
17341;DHT22;8788;49.930;8.660;2023-05-23T06:08:31;17.60;99.90
17341;DHT22;8788;49.930;8.660;2023-05-23T06:10:58;17.60;99.90
17341;DHT22;8788;49.930;8.660;2023-05-23T06:13:25;17.60;99.90
17341;DHT22;8788;49.930;8.660;2023-05-23T06:15:54;17.60;99.90
17341;DHT22;8788;49.930;8.660;2023-05-23T06:18:23;17.60;99.90
17341;DHT22;8788;49.930;8.660;2023-05-23T06:20:50;17.60;99.90
17341;DHT22;8788;49.930;8.660;2023-05-23T06:23:20;17.60;99.90
17341;DHT22;8788;49.930;8.660;2023-05-23T06:25:47;17.60;99.90
17341;DHT22;8788;49.930;8.660;2023-05-23T06:28:14;17.60;99.90
17341;DHT22;8788;49.930;8.660;2023-05-23T06:30:41;17.60;99.90
17341;DHT22;8788;49.930;8.660;2023-05-23T06:33:10;17.60;99.90
17341;DHT22;8788;49.930;8.660;2023-05-23T06:35:37;17.70;99.90
17341;DHT22;8788;49.930;8.660;2023-05-23T06:38:04;17.70;99.90
17341;DHT22;8788;49.930;8.660;2023-05-23T06:40:32;17.70;99.90
17341;DHT22;8788;49.930;8.660;2023-05-23T06:42:59;17.70;99.90
17341;DHT22;8788;49.930;8.660;2023-05-23T06:45:46;17.70;99.90
17341;DHT22;8788;49.930;8.660;2023-05-23T06:48:15;17.70;99.90
17341;DHT22;8788;49.930;8.660;2023-05-23T06:50:43;17.70;99.90
17341;DHT22;8788;49.930;8.660;2023-05-23T06:53:11;17.70;99.90
17341;DHT22;8788;49.930;8.660;2023-05-23T06:55:39;17.70;99.90
17341;DHT22;8788;49.930;8.660;2023-05-23T06:58:08;17.80;99.90
17341;DHT22;8788;49.930;8.660;2023-05-23T07:00:37;17.80;99.90
17341;DHT22;8788;49.930;8.660;2023-05-23T07:03:28;17.90;99.90
17341;DHT22;8788;49.930;8.660;2023-05-23T07:05:59;18.00;99.90
17341;DHT22;8788;49.930;8.660;2023-05-23T07:08:27;18.10;99.90
17341;DHT22;8788;49.930;8.660;2023-05-23T07:10:57;18.10;99.90
17341;DHT22;8788;49.930;8.660;2023-05-23T07:13:30;18.10;99.90
17341;DHT22;8788;49.930;8.660;2023-05-23T07:15:58;18.00;99.90
17341;DHT22;8788;49.930;8.660;2023-05-23T07:18:25;18.10;99.90
17341;DHT22;8788;49.930;8.660;2023-05-23T07:20:55;18.30;99.90
17341;DHT22;8788;49.930;8.660;2023-05-23T07:23:23;18.40;99.90
17341;DHT22;8788;49.930;8.660;2023-05-23T07:25:50;18.40;99.90
17341;DHT22;8788;49.930;8.660;2023-05-23T07:28:24;18.50;99.90
17341;DHT22;8788;49.930;8.660;2023-05-23T07:30:53;18.50;99.90
17341;DHT22;8788;49.930;8.660;2023-05-23T07:33:22;18.60;99.90
17341;DHT22;8788;49.930;8.660;2023-05-23T07:35:50;18.70;99.90
17341;DHT22;8788;49.930;8.660;2023-05-23T07:38:18;18.80;99.90
17341;DHT22;8788;49.930;8.660;2023-05-23T07:40:45;18.90;99.90
17341;DHT22;8788;49.930;8.660;2023-05-23T07:43:12;18.90;99.90
17341;DHT22;8788;49.930;8.660;2023-05-23T07:45:40;19.00;99.90
17341;DHT22;8788;49.930;8.660;2023-05-23T07:48:08;19.00;99.90
17341;DHT22;8788;49.930;8.660;2023-05-23T07:50:35;19.00;99.90
17341;DHT22;8788;49.930;8.660;2023-05-23T07:53:04;18.90;99.90
17341;DHT22;8788;49.930;8.660;2023-05-23T07:55:33;18.90;99.90
17341;DHT22;8788;49.930;8.660;2023-05-23T07:58:01;18.80;99.90
17341;DHT22;8788;49.930;8.660;2023-05-23T08:00:28;18.90;99.90
17341;DHT22;8788;49.930;8.660;2023-05-23T08:03:02;19.00;99.90
17341;DHT22;8788;49.930;8.660;2023-05-23T08:05:36;19.00;99.90
17341;DHT22;8788;49.930;8.660;2023-05-23T08:08:04;19.10;99.90
17341;DHT22;8788;49.930;8.660;2023-05-23T08:10:33;19.00;99.90
17341;DHT22;8788;49.930;8.660;2023-05-23T08:13:08;19.00;99.90
17341;DHT22;8788;49.930;8.660;2023-05-23T08:15:44;19.10;99.90
17341;DHT22;8788;49.930;8.660;2023-05-23T08:18:16;19.10;99.90
17341;DHT22;8788;49.930;8.660;2023-05-23T08:20:43;19.10;99.90
17341;DHT22;8788;49.930;8.660;2023-05-23T08:23:10;19.20;99.90
17341;DHT22;8788;49.930;8.660;2023-05-23T08:25:40;19.30;99.90
17341;DHT22;8788;49.930;8.660;2023-05-23T08:28:07;19.30;99.90
17341;DHT22;8788;49.930;8.660;2023-05-23T08:30:53;19.30;99.90
17341;DHT22;8788;49.930;8.660;2023-05-23T08:33:22;19.30;99.90
17341;DHT22;8788;49.930;8.660;2023-05-23T08:35:52;19.40;99.90
17341;DHT22;8788;49.930;8.660;2023-05-23T08:38:19;19.40;99.90
17341;DHT22;8788;49.930;8.660;2023-05-23T08:41:14;19.50;99.90
17341;DHT22;8788;49.930;8.660;2023-05-23T08:43:42;19.60;99.90
17341;DHT22;8788;49.930;8.660;2023-05-23T08:46:12;19.70;99.90
17341;DHT22;8788;49.930;8.660;2023-05-23T08:48:39;19.80;99.90
17341;DHT22;8788;49.930;8.660;2023-05-23T08:51:08;19.90;99.90
17341;DHT22;8788;49.930;8.660;2023-05-23T08:53:38;20.00;99.90
17341;DHT22;8788;49.930;8.660;2023-05-23T08:56:09;19.90;99.90
17341;DHT22;8788;49.930;8.660;2023-05-23T08:58:42;20.00;99.90
17341;DHT22;8788;49.930;8.660;2023-05-23T09:01:09;20.00;99.90
17341;DHT22;8788;49.930;8.660;2023-05-23T09:03:37;20.00;99.90
17341;DHT22;8788;49.930;8.660;2023-05-23T09:06:36;20.00;99.90
17341;DHT22;8788;49.930;8.660;2023-05-23T09:09:05;20.10;99.90
17341;DHT22;8788;49.930;8.660;2023-05-23T09:11:35;20.20;99.90
17341;DHT22;8788;49.930;8.660;2023-05-23T09:14:06;20.10;99.90
17341;DHT22;8788;49.930;8.660;2023-05-23T09:16:34;20.10;99.90
17341;DHT22;8788;49.930;8.660;2023-05-23T09:19:11;20.00;99.90
17341;DHT22;8788;49.930;8.660;2023-05-23T09:21:42;19.90;99.90
17341;DHT22;8788;49.930;8.660;2023-05-23T09:24:18;19.80;99.90
17341;DHT22;8788;49.930;8.660;2023-05-23T09:26:47;19.90;99.90
17341;DHT22;8788;49.930;8.660;2023-05-23T09:29:18;19.90;99.90
17341;DHT22;8788;49.930;8.660;2023-05-23T09:31:46;20.00;99.90
17341;DHT22;8788;49.930;8.660;2023-05-23T09:34:13;20.00;99.90
17341;DHT22;8788;49.930;8.660;2023-05-23T09:36:40;19.90;99.90
17341;DHT22;8788;49.930;8.660;2023-05-23T09:39:10;19.80;99.90
17341;DHT22;8788;49.930;8.660;2023-05-23T09:41:38;19.80;99.90
17341;DHT22;8788;49.930;8.660;2023-05-23T09:44:08;19.70;99.90
17341;DHT22;8788;49.930;8.660;2023-05-23T09:46:36;19.60;99.90
17341;DHT22;8788;49.930;8.660;2023-05-23T09:49:14;19.50;99.90
17341;DHT22;8788;49.930;8.660;2023-05-23T09:51:56;19.60;99.90
17341;DHT22;8788;49.930;8.660;2023-05-23T09:54:23;19.50;99.90
17341;DHT22;8788;49.930;8.660;2023-05-23T09:56:52;19.40;99.90
17341;DHT22;8788;49.930;8.660;2023-05-23T09:59:22;19.40;99.90
17341;DHT22;8788;49.930;8.660;2023-05-23T10:01:56;19.40;99.90
17341;DHT22;8788;49.930;8.660;2023-05-23T10:04:24;19.40;99.90
17341;DHT22;8788;49.930;8.660;2023-05-23T10:06:56;19.50;99.90
17341;DHT22;8788;49.930;8.660;2023-05-23T10:09:26;19.60;99.90
17341;DHT22;8788;49.930;8.660;2023-05-23T10:15:13;19.70;99.90
17341;DHT22;8788;49.930;8.660;2023-05-23T10:18:02;19.90;99.90
17341;DHT22;8788;49.930;8.660;2023-05-23T10:20:31;20.10;99.90
17341;DHT22;8788;49.930;8.660;2023-05-23T10:22:59;20.20;99.90
17341;DHT22;8788;49.930;8.660;2023-05-23T10:25:27;20.30;99.90
17341;DHT22;8788;49.930;8.660;2023-05-23T10:27:56;20.30;99.90
17341;DHT22;8788;49.930;8.660;2023-05-23T10:30:26;20.40;99.90
17341;DHT22;8788;49.930;8.660;2023-05-23T10:32:53;20.40;99.90
17341;DHT22;8788;49.930;8.660;2023-05-23T10:35:28;20.40;99.90
17341;DHT22;8788;49.930;8.660;2023-05-23T10:38:00;20.50;99.90
17341;DHT22;8788;49.930;8.660;2023-05-23T10:40:36;20.50;99.90
17341;DHT22;8788;49.930;8.660;2023-05-23T10:43:15;20.40;99.90
17341;DHT22;8788;49.930;8.660;2023-05-23T10:45:45;20.30;99.90
17341;DHT22;8788;49.930;8.660;2023-05-23T10:48:22;20.10;99.90
17341;DHT22;8788;49.930;8.660;2023-05-23T10:51:03;20.00;99.90
17341;DHT22;8788;49.930;8.660;2023-05-23T10:53:31;20.00;99.90
17341;DHT22;8788;49.930;8.660;2023-05-23T10:55:58;19.90;99.90
17341;DHT22;8788;49.930;8.660;2023-05-23T10:58:29;20.00;99.90
17341;DHT22;8788;49.930;8.660;2023-05-23T11:00:59;20.10;99.90
17341;DHT22;8788;49.930;8.660;2023-05-23T11:03:34;20.10;99.90
17341;DHT22;8788;49.930;8.660;2023-05-23T11:06:03;20.20;99.90
17341;DHT22;8788;49.930;8.660;2023-05-23T11:08:37;20.30;99.90
17341;DHT22;8788;49.930;8.660;2023-05-23T11:11:06;20.50;99.90
17341;DHT22;8788;49.930;8.660;2023-05-23T11:13:56;20.60;99.90
17341;DHT22;8788;49.930;8.660;2023-05-23T11:16:28;20.70;99.90
17341;DHT22;8788;49.930;8.660;2023-05-23T11:19:26;20.80;99.90
17341;DHT22;8788;49.930;8.660;2023-05-23T11:21:56;21.00;99.90
17341;DHT22;8788;49.930;8.660;2023-05-23T11:24:47;21.10;99.90
17341;DHT22;8788;49.930;8.660;2023-05-23T11:27:15;21.10;99.90
17341;DHT22;8788;49.930;8.660;2023-05-23T11:29:55;21.10;99.90
17341;DHT22;8788;49.930;8.660;2023-05-23T11:32:23;21.10;99.90
17341;DHT22;8788;49.930;8.660;2023-05-23T11:34:53;21.00;99.90
17341;DHT22;8788;49.930;8.660;2023-05-23T11:37:20;21.00;99.90
17341;DHT22;8788;49.930;8.660;2023-05-23T11:39:48;21.10;99.90
17341;DHT22;8788;49.930;8.660;2023-05-23T11:42:15;21.20;99.90
17341;DHT22;8788;49.930;8.660;2023-05-23T11:44:42;21.20;99.90
17341;DHT22;8788;49.930;8.660;2023-05-23T11:47:09;21.10;99.90
17341;DHT22;8788;49.930;8.660;2023-05-23T11:49:39;21.10;99.90
17341;DHT22;8788;49.930;8.660;2023-05-23T11:52:06;21.20;99.90
17341;DHT22;8788;49.930;8.660;2023-05-23T11:54:33;21.30;99.90
17341;DHT22;8788;49.930;8.660;2023-05-23T11:57:01;21.30;99.90
17341;DHT22;8788;49.930;8.660;2023-05-23T11:59:29;21.30;99.90
17341;DHT22;8788;49.930;8.660;2023-05-23T12:01:56;21.50;99.90
17341;DHT22;8788;49.930;8.660;2023-05-23T12:04:24;21.60;99.90
17341;DHT22;8788;49.930;8.660;2023-05-23T12:06:53;21.80;99.90
17341;DHT22;8788;49.930;8.660;2023-05-23T12:09:20;21.70;99.90
17341;DHT22;8788;49.930;8.660;2023-05-23T12:11:48;21.70;99.90
17341;DHT22;8788;49.930;8.660;2023-05-23T12:14:16;21.80;99.90
17341;DHT22;8788;49.930;8.660;2023-05-23T12:16:44;21.60;99.90
17341;DHT22;8788;49.930;8.660;2023-05-23T12:19:12;21.50;99.90
17341;DHT22;8788;49.930;8.660;2023-05-23T12:21:41;21.40;99.90
17341;DHT22;8788;49.930;8.660;2023-05-23T12:24:17;21.40;99.90
17341;DHT22;8788;49.930;8.660;2023-05-23T12:26:52;21.50;99.90
17341;DHT22;8788;49.930;8.660;2023-05-23T12:29:20;21.60;99.90
17341;DHT22;8788;49.930;8.660;2023-05-23T12:31:48;21.70;99.90
17341;DHT22;8788;49.930;8.660;2023-05-23T12:34:16;21.70;99.90
17341;DHT22;8788;49.930;8.660;2023-05-23T12:36:43;21.80;99.90
17341;DHT22;8788;49.930;8.660;2023-05-23T12:39:10;21.80;99.90
17341;DHT22;8788;49.930;8.660;2023-05-23T12:41:41;21.70;99.90
17341;DHT22;8788;49.930;8.660;2023-05-23T12:44:09;21.70;99.90
17341;DHT22;8788;49.930;8.660;2023-05-23T12:46:36;21.60;99.90
17341;DHT22;8788;49.930;8.660;2023-05-23T12:49:04;21.60;99.90
17341;DHT22;8788;49.930;8.660;2023-05-23T12:51:31;21.50;99.90
17341;DHT22;8788;49.930;8.660;2023-05-23T12:53:58;21.30;99.90
17341;DHT22;8788;49.930;8.660;2023-05-23T12:56:25;21.10;99.90
17341;DHT22;8788;49.930;8.660;2023-05-23T12:58:54;21.00;99.90
17341;DHT22;8788;49.930;8.660;2023-05-23T13:01:21;21.00;99.90
17341;DHT22;8788;49.930;8.660;2023-05-23T13:03:49;20.90;99.90
17341;DHT22;8788;49.930;8.660;2023-05-23T13:06:16;20.90;99.90
17341;DHT22;8788;49.930;8.660;2023-05-23T13:08:43;20.80;99.90
17341;DHT22;8788;49.930;8.660;2023-05-23T13:11:10;20.80;99.90
17341;DHT22;8788;49.930;8.660;2023-05-23T13:13:37;20.90;99.90
17341;DHT22;8788;49.930;8.660;2023-05-23T13:16:06;20.90;99.90
17341;DHT22;8788;49.930;8.660;2023-05-23T13:18:34;21.00;99.90
17341;DHT22;8788;49.930;8.660;2023-05-23T13:21:01;21.00;99.90
17341;DHT22;8788;49.930;8.660;2023-05-23T13:23:28;21.00;99.90
17341;DHT22;8788;49.930;8.660;2023-05-23T13:25:55;20.90;99.90
17341;DHT22;8788;49.930;8.660;2023-05-23T13:28:23;21.00;99.90
17341;DHT22;8788;49.930;8.660;2023-05-23T13:30:50;21.10;99.90
17341;DHT22;8788;49.930;8.660;2023-05-23T13:33:19;21.20;99.90
17341;DHT22;8788;49.930;8.660;2023-05-23T13:35:47;21.40;99.90
17341;DHT22;8788;49.930;8.660;2023-05-23T13:38:16;21.50;99.90
17341;DHT22;8788;49.930;8.660;2023-05-23T13:40:44;21.50;99.90
17341;DHT22;8788;49.930;8.660;2023-05-23T13:43:11;21.60;99.90
17341;DHT22;8788;49.930;8.660;2023-05-23T13:45:38;21.60;99.90
17341;DHT22;8788;49.930;8.660;2023-05-23T13:48:05;21.60;99.90
17341;DHT22;8788;49.930;8.660;2023-05-23T13:50:33;21.50;99.90
17341;DHT22;8788;49.930;8.660;2023-05-23T13:53:01;21.40;99.90
17341;DHT22;8788;49.930;8.660;2023-05-23T13:55:28;21.50;99.90
17341;DHT22;8788;49.930;8.660;2023-05-23T13:57:56;21.60;99.90
17341;DHT22;8788;49.930;8.660;2023-05-23T14:00:23;21.70;99.90
17341;DHT22;8788;49.930;8.660;2023-05-23T14:02:50;21.90;99.90
17341;DHT22;8788;49.930;8.660;2023-05-23T14:05:17;22.00;99.90
17341;DHT22;8788;49.930;8.660;2023-05-23T14:07:46;22.00;99.90
17341;DHT22;8788;49.930;8.660;2023-05-23T14:10:13;22.00;99.90
17341;DHT22;8788;49.930;8.660;2023-05-23T14:12:42;21.90;99.90
17341;DHT22;8788;49.930;8.660;2023-05-23T14:15:10;21.90;99.90
17341;DHT22;8788;49.930;8.660;2023-05-23T14:17:37;21.90;99.90
17341;DHT22;8788;49.930;8.660;2023-05-23T14:20:05;21.90;99.90
17341;DHT22;8788;49.930;8.660;2023-05-23T14:22:33;21.80;99.90
17341;DHT22;8788;49.930;8.660;2023-05-23T14:25:01;21.60;99.90
17341;DHT22;8788;49.930;8.660;2023-05-23T14:27:28;21.40;99.90
17341;DHT22;8788;49.930;8.660;2023-05-23T14:29:55;21.40;99.90
17341;DHT22;8788;49.930;8.660;2023-05-23T14:32:22;21.40;99.90
17341;DHT22;8788;49.930;8.660;2023-05-23T14:34:50;21.30;99.90
17341;DHT22;8788;49.930;8.660;2023-05-23T14:37:17;21.30;99.90
17341;DHT22;8788;49.930;8.660;2023-05-23T14:39:44;21.20;99.90
17341;DHT22;8788;49.930;8.660;2023-05-23T14:42:12;21.00;99.90
17341;DHT22;8788;49.930;8.660;2023-05-23T14:44:39;20.90;99.90
17341;DHT22;8788;49.930;8.660;2023-05-23T14:47:06;20.70;99.90
17341;DHT22;8788;49.930;8.660;2023-05-23T14:49:33;20.60;99.90
17341;DHT22;8788;49.930;8.660;2023-05-23T14:52:01;20.50;99.90
17341;DHT22;8788;49.930;8.660;2023-05-23T14:54:28;20.40;99.90
17341;DHT22;8788;49.930;8.660;2023-05-23T14:56:55;20.30;99.90
17341;DHT22;8788;49.930;8.660;2023-05-23T14:59:23;20.20;99.90
17341;DHT22;8788;49.930;8.660;2023-05-23T15:01:50;20.20;99.90
17341;DHT22;8788;49.930;8.660;2023-05-23T15:04:18;20.20;99.90
17341;DHT22;8788;49.930;8.660;2023-05-23T15:06:45;20.20;99.90
17341;DHT22;8788;49.930;8.660;2023-05-23T15:09:13;20.20;99.90
17341;DHT22;8788;49.930;8.660;2023-05-23T15:11:40;20.20;99.90
17341;DHT22;8788;49.930;8.660;2023-05-23T15:14:09;20.10;99.90
17341;DHT22;8788;49.930;8.660;2023-05-23T15:16:38;20.00;99.90
17341;DHT22;8788;49.930;8.660;2023-05-23T15:19:05;19.90;99.90
17341;DHT22;8788;49.930;8.660;2023-05-23T15:21:32;19.80;99.90
17341;DHT22;8788;49.930;8.660;2023-05-23T15:23:59;19.90;99.90
17341;DHT22;8788;49.930;8.660;2023-05-23T15:26:26;19.90;99.90
17341;DHT22;8788;49.930;8.660;2023-05-23T15:28:54;19.90;99.90
17341;DHT22;8788;49.930;8.660;2023-05-23T15:31:22;19.90;99.90
17341;DHT22;8788;49.930;8.660;2023-05-23T15:33:50;20.00;99.90
17341;DHT22;8788;49.930;8.660;2023-05-23T15:36:17;20.10;99.90
17341;DHT22;8788;49.930;8.660;2023-05-23T15:38:44;20.20;99.90
17341;DHT22;8788;49.930;8.660;2023-05-23T15:41:11;20.30;99.90
17341;DHT22;8788;49.930;8.660;2023-05-23T15:43:38;20.40;99.90
17341;DHT22;8788;49.930;8.660;2023-05-23T15:46:05;20.50;99.90
17341;DHT22;8788;49.930;8.660;2023-05-23T15:48:32;20.80;99.90
17341;DHT22;8788;49.930;8.660;2023-05-23T15:51:01;21.20;99.90
17341;DHT22;8788;49.930;8.660;2023-05-23T15:53:29;21.50;99.90
17341;DHT22;8788;49.930;8.660;2023-05-23T15:55:56;21.50;99.90
17341;DHT22;8788;49.930;8.660;2023-05-23T15:58:23;21.40;99.90
17341;DHT22;8788;49.930;8.660;2023-05-23T16:00:51;21.20;99.90